Time;durP1;ratioP1;P1;durP2;ratioP2;P2;SDS_P1;SDS_P2;PMS_P1;PMS_P2;Temp;Humidity;BMP_temperature;BMP_pressure;BME280_temperature;BME280_humidity;BME280_pressure;Samples;Min_cycle;Max_cycle;Signal;HPM_P1;HPM_P2
2022/04/17 00:02:00;;;;;;;5.23;3.23;;;9.40;72.70;;;;;;5047000;28;20478;-89
2022/04/17 00:04:27;;;;;;;6.70;4.03;;;9.60;71.70;;;;;;5055142;28;20472;-86
2022/04/17 00:06:56;;;;;;;4.83;3.00;;;9.50;72.00;;;;;;5057719;28;20524;-89
2022/04/17 00:09:24;;;;;;;5.60;3.33;;;9.50;72.10;;;;;;5055186;28;20461;-88
2022/04/17 00:11:52;;;;;;;7.75;3.78;;;9.40;73.00;;;;;;5055932;28;20551;-86
2022/04/17 00:14:26;;;;;;;5.77;2.80;;;9.30;73.30;;;;;;5052241;28;20184;-89
2022/04/17 00:16:57;;;;;;;4.90;3.47;;;9.20;74.20;;;;;;5049145;28;20455;-87
2022/04/17 00:19:24;;;;;;;5.23;3.40;;;9.30;73.60;;;;;;5046427;28;20211;-87
2022/04/17 00:21:51;;;;;;;4.70;2.90;;;9.30;73.20;;;;;;5043395;28;20501;-86
2022/04/17 00:24:30;;;;;;;4.10;2.83;;;9.40;72.70;;;;;;5043687;28;20453;-86
2022/04/17 00:27:02;;;;;;;6.57;3.23;;;9.10;72.70;;;;;;5043184;28;20874;-86
2022/04/17 00:29:36;;;;;;;5.47;3.53;;;9.10;73.20;;;;;;5047308;28;20469;-88
2022/04/17 00:32:03;;;;;;;6.50;3.00;;;9.00;74.00;;;;;;5047131;28;20490;-88
2022/04/17 00:34:31;;;;;;;7.93;3.50;;;9.00;75.50;;;;;;5043202;28;20449;-87
2022/04/17 00:37:01;;;;;;;5.53;3.22;;;8.90;76.60;;;;;;5047598;28;20230;-84
2022/04/17 00:39:31;;;;;;;5.55;3.40;;;9.00;75.10;;;;;;5043409;28;20286;-88
2022/04/17 00:42:02;;;;;;;4.40;3.03;;;8.90;75.70;;;;;;5048347;28;20219;-88
2022/04/17 00:44:33;;;;;;;5.18;3.00;;;8.80;76.30;;;;;;5049168;28;20433;-87
2022/04/17 00:47:00;;;;;;;5.07;2.95;;;8.80;76.70;;;;;;5042327;28;20179;-86
2022/04/17 00:49:27;;;;;;;4.95;3.20;;;8.70;76.40;;;;;;5040473;28;20264;-86
2022/04/17 00:51:56;;;;;;;4.67;3.30;;;8.70;76.70;;;;;;5040207;28;20227;-87
2022/04/17 00:54:26;;;;;;;5.85;3.17;;;8.60;78.00;;;;;;5040527;28;20549;-85
2022/04/17 00:56:56;;;;;;;5.13;3.10;;;8.70;79.30;;;;;;5041162;28;20206;-87
2022/04/17 00:59:24;;;;;;;4.90;3.33;;;8.70;79.50;;;;;;5041175;28;20206;-86
2022/04/17 01:01:57;;;;;;;6.90;3.40;;;8.70;80.30;;;;;;5040513;28;20231;-87
2022/04/17 01:04:24;;;;;;;6.10;2.97;;;8.70;79.20;;;;;;5040848;28;20442;-87
2022/04/17 01:06:51;;;;;;;5.45;3.45;;;8.80;78.30;;;;;;5051722;28;20210;-86
2022/04/17 01:09:18;;;;;;;5.93;3.33;;;8.60;80.40;;;;;;5055765;28;20213;-86
2022/04/17 01:39:33;;;;;;;5.90;3.50;;;8.20;88.60;;;;;;4806189;29;20216;-85
2022/04/17 01:50:51;;;;;;;6.22;3.63;;;8.10;88.60;;;;;;3256071;26;20592;-85
2022/04/17 02:14:50;;;;;;;;;;;;;;;;;;;;;
2022/04/17 02:38:53;;;;;;;7.60;3.92;;;7.40;94.60;;;;;;4863687;29;20291;-86
2022/04/17 02:54:39;;;;;;;6.40;3.67;;;7.30;95.70;;;;;;4867620;29;20201;-84
2022/04/17 03:11:32;;;;;;;5.53;3.50;;;7.00;96.20;;;;;;4949927;28;20238;-84
2022/04/17 03:24:15;;;;;;;;;;;;;;;;;;;;;
2022/04/17 03:27:03;;;;;;;6.00;4.05;;;6.90;97.40;;;;;;5002832;28;20216;-85
2022/04/17 03:30:06;;;;;;;10.52;4.57;;;6.90;97.40;;;;;;5017345;28;20223;-84
2022/04/17 03:33:29;;;;;;;6.32;3.70;;;6.90;97.60;;;;;;5020439;28;20231;-84
2022/04/17 03:43:42;;;;;;;6.72;3.80;;;6.60;99.00;;;;;;4891109;29;20240;-85
2022/04/17 04:04:07;;;;;;;6.85;4.53;;;6.50;99.90;;;;;;4786238;29;20270;-83
2022/04/17 04:11:05;;;;;;;7.80;4.57;;;6.60;99.90;;;;;;4818582;29;20258;-85
2022/04/17 04:17:20;;;;;;;6.28;4.22;;;6.60;99.80;;;;;;4826475;29;20218;-86
2022/04/17 04:20:07;;;;;;;5.95;4.00;;;6.60;99.90;;;;;;4815746;29;20676;-84
2022/04/17 04:22:58;;;;;;;7.10;4.50;;;6.60;99.90;;;;;;5079090;22;20237;-84
2022/04/17 04:29:08;;;;;;;7.55;5.07;;;6.60;99.90;;;;;;5061925;28;20246;-85
2022/04/17 05:03:31;;;;;;;6.40;4.43;;;6.10;99.90;;;;;;5079442;28;20228;-85
2022/04/17 05:13:21;;;;;;;8.52;4.38;;;6.10;99.90;;;;;;5023864;28;20245;-85
2022/04/17 05:16:16;;;;;;;7.95;5.20;;;6.20;99.90;;;;;;5096467;28;20231;-83
2022/04/17 05:19:24;;;;;;;6.20;4.47;;;6.20;99.90;;;;;;5097540;28;20197;-84
2022/04/17 07:13:47;;;;;;;5.23;3.10;;;9.20;86.70;;;;;;4240096;22;20490;-88
2022/04/17 07:16:17;;;;;;;4.60;3.10;;;9.30;85.90;;;;;;5086447;28;20432;-88
2022/04/17 07:18:47;;;;;;;4.20;2.90;;;9.40;85.80;;;;;;5086079;28;20428;-86
2022/04/17 07:21:19;;;;;;;5.43;3.00;;;9.50;85.10;;;;;;5087911;28;20843;-87
2022/04/17 07:23:53;;;;;;;5.07;3.00;;;9.60;85.20;;;;;;5088805;28;20479;-86
2022/04/17 07:29:22;;;;;;;5.60;2.70;;;9.60;82.80;;;;;;5079635;28;20518;-87
2022/04/17 07:31:59;;;;;;;5.30;2.87;;;9.70;82.70;;;;;;5086360;28;20515;-85
2022/04/17 07:34:30;;;;;;;4.00;2.60;;;9.80;81.20;;;;;;5087901;28;20407;-85
2022/04/17 07:36:59;;;;;;;4.33;2.63;;;9.70;80.20;;;;;;5086091;28;20858;-87
2022/04/17 07:39:28;;;;;;;6.20;2.60;;;9.70;81.10;;;;;;5085279;28;20482;-86
2022/04/17 07:42:19;;;;;;;4.13;2.23;;;9.90;80.10;;;;;;5085287;28;20447;-87
2022/04/17 07:44:49;;;;;;;3.93;2.23;;;10.00;76.60;;;;;;5084718;28;20435;-87
2022/04/17 07:47:31;;;;;;;4.70;2.50;;;10.20;75.30;;;;;;5085060;28;20427;-87
2022/04/17 07:52:46;;;;;;;4.10;2.50;;;10.20;75.00;;;;;;5070594;28;20507;-88
2022/04/17 07:55:15;;;;;;;4.80;3.00;;;10.30;74.70;;;;;;5083073;28;20475;-87
2022/04/17 07:58:11;;;;;;;4.20;2.90;;;10.50;73.70;;;;;;5085972;28;20419;-86
2022/04/17 08:00:51;;;;;;;4.57;2.63;;;10.50;72.20;;;;;;5092670;28;20485;-88
2022/04/17 08:03:46;;;;;;;5.10;2.40;;;10.60;71.70;;;;;;5096914;28;20464;-86
2022/04/17 08:06:52;;;;;;;3.90;2.10;;;10.70;71.20;;;;;;5094234;28;20439;-88
2022/04/17 08:13:12;;;;;;;6.30;2.67;;;10.70;69.90;;;;;;5083125;28;20488;-87
2022/04/17 08:15:45;;;;;;;5.23;2.90;;;10.60;69.40;;;;;;5092109;28;20428;-86
2022/04/17 08:21:17;;;;;;;;;;;;;;;;;;;;;
2022/04/17 08:23:45;;;;;;;4.53;2.60;;;10.90;70.80;;;;;;5084219;28;20466;-87
2022/04/17 08:26:12;;;;;;;8.70;3.07;;;11.00;70.00;;;;;;5084069;28;20448;-85
2022/04/17 08:28:39;;;;;;;4.23;2.80;;;11.20;69.20;;;;;;5086114;28;20411;-87
2022/04/17 08:31:11;;;;;;;4.23;2.30;;;11.30;68.80;;;;;;5084512;28;20531;-86
2022/04/17 08:33:43;;;;;;;7.37;2.70;;;11.30;68.70;;;;;;5085762;28;20510;-87
2022/04/17 08:36:09;;;;;;;3.83;2.30;;;11.30;67.40;;;;;;5089927;28;20395;-87
2022/04/17 08:38:38;;;;;;;5.37;2.80;;;11.40;67.00;;;;;;5087725;28;20446;-86
2022/04/17 08:41:06;;;;;;;5.63;2.83;;;11.50;67.00;;;;;;5088942;28;20434;-87
2022/04/17 08:43:43;;;;;;;4.90;3.00;;;11.30;66.20;;;;;;5087185;28;20949;-87
2022/04/17 08:46:13;;;;;;;5.43;2.33;;;11.40;65.20;;;;;;5086810;28;20478;-86
2022/04/17 08:48:53;;;;;;;5.00;2.73;;;11.50;65.20;;;;;;5085747;28;20464;-87
2022/04/17 08:51:23;;;;;;;4.77;2.10;;;11.60;65.40;;;;;;5085861;28;20440;-87
2022/04/17 08:53:52;;;;;;;4.60;2.33;;;11.70;63.50;;;;;;5083649;28;20479;-86
2022/04/17 08:56:21;;;;;;;3.80;2.30;;;11.70;62.60;;;;;;5085806;28;20456;-86
2022/04/17 08:59:15;;;;;;;4.97;2.53;;;11.90;62.90;;;;;;5090322;28;20481;-86
2022/04/17 09:01:52;;;;;;;4.10;2.30;;;11.90;60.70;;;;;;5095826;28;20448;-86
2022/04/17 09:04:22;;;;;;;3.60;2.00;;;11.80;60.80;;;;;;5095458;28;20416;-85
2022/04/17 09:06:50;;;;;;;5.23;2.63;;;11.90;61.80;;;;;;5088953;28;20455;-87
2022/04/17 09:09:23;;;;;;;4.17;2.40;;;12.10;61.80;;;;;;5086693;28;20437;-85
2022/04/17 09:11:55;;;;;;;4.13;2.03;;;12.10;61.20;;;;;;5089290;28;20446;-85
2022/04/17 09:14:23;;;;;;;5.30;2.50;;;12.20;61.40;;;;;;5085051;28;20903;-86
2022/04/17 09:17:18;;;;;;;3.80;2.50;;;12.30;60.40;;;;;;5085775;28;20936;-86
2022/04/17 09:19:45;;;;;;;3.57;1.73;;;12.20;60.90;;;;;;5092723;28;20455;-85
2022/04/17 09:22:12;;;;;;;4.90;2.70;;;12.30;60.70;;;;;;5096535;28;20466;-84
2022/04/17 09:24:41;;;;;;;4.90;2.63;;;12.40;60.70;;;;;;5097762;28;20455;-84
2022/04/17 09:27:10;;;;;;;4.80;2.40;;;12.50;60.50;;;;;;5098025;28;20436;-85
2022/04/17 09:29:39;;;;;;;5.47;2.13;;;12.70;59.80;;;;;;5097019;28;20444;-86
2022/04/17 09:32:10;;;;;;;4.47;2.10;;;12.80;59.60;;;;;;5086089;28;20486;-85
2022/04/17 09:35:05;;;;;;;3.90;2.37;;;12.90;59.00;;;;;;5084645;28;20436;-85
2022/04/17 09:37:35;;;;;;;3.20;2.00;;;12.80;58.40;;;;;;5086731;28;20448;-87
2022/04/17 09:40:08;;;;;;;4.50;2.47;;;12.70;58.30;;;;;;5088680;28;20447;-88
2022/04/17 09:42:37;;;;;;;5.17;2.77;;;12.70;58.60;;;;;;5087368;28;20524;-87
2022/04/17 09:45:08;;;;;;;4.40;2.13;;;12.70;58.60;;;;;;5086420;28;20433;-87
2022/04/17 09:47:36;;;;;;;4.47;2.60;;;12.60;58.40;;;;;;5088360;28;20502;-87
2022/04/17 09:50:06;;;;;;;4.97;2.37;;;12.70;58.70;;;;;;5086774;28;20468;-86
2022/04/17 09:52:44;;;;;;;3.90;2.27;;;12.90;58.60;;;;;;5083537;28;20582;-87
2022/04/17 09:55:12;;;;;;;4.30;2.20;;;13.00;58.50;;;;;;5084048;28;20430;-87
2022/04/17 09:57:45;;;;;;;5.27;2.50;;;13.10;58.40;;;;;;5084504;28;20881;-88
2022/04/17 10:00:18;;;;;;;3.70;2.13;;;13.20;58.30;;;;;;5084423;28;20513;-86
2022/04/17 10:02:48;;;;;;;3.70;1.97;;;13.30;58.10;;;;;;5083638;28;20482;-86
2022/04/17 10:05:16;;;;;;;4.40;2.60;;;13.40;57.60;;;;;;5082441;28;20426;-86
2022/04/17 10:07:46;;;;;;;3.70;2.20;;;13.50;57.50;;;;;;5082389;28;20766;-86
2022/04/17 10:10:19;;;;;;;6.90;2.20;;;13.50;57.10;;;;;;5088349;28;20482;-86
2022/04/17 10:13:02;;;;;;;5.07;2.20;;;13.50;57.40;;;;;;5090552;28;20640;-87
2022/04/17 10:15:29;;;;;;;4.63;2.70;;;13.40;57.50;;;;;;5086530;28;20411;-88
2022/04/17 10:18:03;;;;;;;6.53;2.97;;;13.40;57.70;;;;;;5087258;28;20973;-87
2022/04/17 10:20:32;;;;;;;3.90;2.17;;;13.40;57.70;;;;;;5085434;28;20414;-86
2022/04/17 10:23:05;;;;;;;4.50;2.50;;;13.20;57.90;;;;;;5086290;28;20476;-87
2022/04/17 10:25:42;;;;;;;3.50;1.97;;;13.30;57.70;;;;;;5093177;28;20418;-88
2022/04/17 10:28:10;;;;;;;5.20;2.03;;;13.40;58.30;;;;;;5084879;28;20430;-87
2022/04/17 10:31:01;;;;;;;4.67;2.13;;;13.60;58.00;;;;;;5084005;28;20459;-89
2022/04/17 10:34:07;;;;;;;4.07;1.67;;;13.50;57.70;;;;;;5081346;28;20487;-87
2022/04/17 10:36:55;;;;;;;3.30;1.47;;;13.70;58.30;;;;;;5081770;28;20418;-87
2022/04/17 10:39:38;;;;;;;4.10;2.00;;;13.70;57.60;;;;;;5081559;28;20438;-86
2022/04/17 10:42:14;;;;;;;3.20;1.40;;;13.80;58.00;;;;;;5082507;28;20509;-86
2022/04/17 10:45:02;;;;;;;3.30;1.60;;;13.60;57.50;;;;;;5092061;28;20394;-86
2022/04/17 10:47:42;;;;;;;5.13;1.87;;;13.80;57.40;;;;;;5090208;28;20443;-87
2022/04/17 10:50:13;;;;;;;4.90;2.00;;;13.70;56.90;;;;;;5084829;28;20430;-87
2022/04/17 10:52:43;;;;;;;5.33;1.80;;;13.40;56.90;;;;;;5085802;28;20954;-89
2022/04/17 10:55:12;;;;;;;3.13;1.60;;;13.20;56.70;;;;;;5083685;28;20427;-86
2022/04/17 10:57:57;;;;;;;6.33;2.10;;;13.50;56.50;;;;;;5082807;28;20882;-85
2022/04/17 11:00:41;;;;;;;5.40;2.03;;;13.70;56.50;;;;;;5082911;28;20466;-86
2022/04/17 11:03:27;;;;;;;6.10;2.70;;;13.90;56.50;;;;;;5082146;28;20465;-86
2022/04/17 11:06:31;;;;;;;5.07;2.03;;;14.10;55.80;;;;;;5083503;28;20441;-89
2022/04/17 11:09:10;;;;;;;3.07;1.73;;;14.00;54.70;;;;;;5082821;28;20434;-86
2022/04/17 11:11:45;;;;;;;6.70;1.63;;;14.00;54.60;;;;;;5084720;28;20452;-86
2022/04/17 11:14:21;;;;;;;6.80;1.80;;;14.10;54.50;;;;;;5094734;28;20474;-84
2022/04/17 11:17:08;;;;;;;3.97;1.80;;;14.30;54.00;;;;;;5096777;28;20429;-83
2022/04/17 11:19:47;;;;;;;5.30;1.50;;;14.50;53.40;;;;;;5100368;28;20412;-84
2022/04/17 11:22:18;;;;;;;4.20;1.60;;;14.30;53.40;;;;;;5093424;28;20477;-85
2022/04/17 11:25:27;;;;;;;3.93;1.87;;;14.20;53.00;;;;;;5098182;28;20435;-86
2022/04/17 11:27:54;;;;;;;5.80;2.10;;;14.50;52.80;;;;;;5083978;28;20473;-86
2022/04/17 11:30:36;;;;;;;3.70;1.90;;;14.40;52.20;;;;;;5085031;28;20462;-87
2022/04/17 11:33:14;;;;;;;5.47;1.97;;;14.60;52.20;;;;;;5087666;28;20481;-87
2022/04/17 11:35:42;;;;;;;3.80;1.60;;;14.70;51.80;;;;;;5086693;28;20529;-87
2022/04/17 11:38:28;;;;;;;3.00;1.70;;;14.70;51.70;;;;;;5085314;28;20893;-86
2022/04/17 11:47:22;;;;;;;4.43;1.20;;;15.00;50.10;;;;;;5079352;28;20415;-87
2022/04/17 11:49:56;;;;;;;3.80;1.90;;;14.80;50.30;;;;;;5085336;28;20498;-86
2022/04/17 11:52:25;;;;;;;4.10;1.97;;;14.80;51.30;;;;;;5083905;28;20463;-85
2022/04/17 11:55:01;;;;;;;3.60;1.90;;;15.00;51.20;;;;;;5092120;28;20475;-86
2022/04/17 11:57:32;;;;;;;2.83;1.40;;;15.10;50.50;;;;;;5090483;28;20420;-89
2022/04/17 12:00:08;;;;;;;3.20;1.70;;;15.20;50.20;;;;;;5089126;28;20947;-86
2022/04/17 12:05:31;;;;;;;2.50;1.00;;;15.40;49.00;;;;;;5098114;28;20483;-87
2022/04/17 12:08:04;;;;;;;3.13;1.17;;;15.30;48.70;;;;;;5091334;28;20447;-85
2022/04/17 12:10:47;;;;;;;8.23;2.07;;;15.10;49.50;;;;;;5085378;28;20948;-87
2022/04/17 12:13:25;;;;;;;3.10;1.53;;;15.30;50.10;;;;;;5085390;28;20570;-88
2022/04/17 12:16:04;;;;;;;4.70;1.70;;;15.30;50.30;;;;;;5085738;28;20434;-88
2022/04/17 12:18:33;;;;;;;4.00;1.97;;;15.20;50.80;;;;;;5085589;28;20708;-87
2022/04/17 12:21:08;;;;;;;5.80;2.47;;;15.30;50.30;;;;;;5085205;28;20415;-87
2022/04/17 12:26:36;;;;;;;4.20;2.00;;;15.40;49.70;;;;;;5089099;28;20817;-88
2022/04/17 12:29:23;;;;;;;3.50;1.70;;;15.40;49.80;;;;;;5086761;28;20505;-88
2022/04/17 12:34:27;;;;;;;3.60;1.87;;;15.50;49.40;;;;;;5118074;22;20489;-87
2022/04/17 12:37:29;;;;;;;3.50;1.67;;;15.30;48.50;;;;;;5048238;28;20523;-88
2022/04/17 12:40:11;;;;;;;3.23;1.50;;;15.40;49.20;;;;;;5045490;28;20472;-86
2022/04/17 12:42:50;;;;;;;3.27;1.50;;;15.40;49.40;;;;;;5047672;28;20469;-87
2022/04/17 12:45:33;;;;;;;4.20;1.70;;;15.40;48.40;;;;;;5049746;28;20433;-86
2022/04/17 12:48:15;;;;;;;3.53;1.50;;;15.30;48.60;;;;;;5048205;28;20457;-87
2022/04/17 12:51:05;;;;;;;3.47;1.60;;;15.10;49.30;;;;;;5049915;28;20421;-87
2022/04/17 12:53:53;;;;;;;3.60;1.70;;;15.20;49.20;;;;;;5044011;28;20455;-87
2022/04/17 12:56:25;;;;;;;3.30;1.70;;;15.40;48.90;;;;;;5043868;28;20512;-86
2022/04/17 12:59:19;;;;;;;3.47;1.60;;;15.40;49.10;;;;;;5043693;28;20428;-88
2022/04/17 13:01:54;;;;;;;3.37;1.70;;;15.40;48.90;;;;;;5043173;28;20454;-87
2022/04/17 13:04:24;;;;;;;4.07;1.70;;;15.40;49.30;;;;;;5045593;28;20392;-87
2022/04/17 13:07:28;;;;;;;3.80;1.23;;;15.50;47.80;;;;;;5043094;28;20473;-88
2022/04/17 13:10:06;;;;;;;3.30;1.60;;;15.60;46.10;;;;;;5042968;28;20454;-87
2022/04/17 13:12:41;;;;;;;3.50;1.60;;;15.60;45.50;;;;;;5097484;22;20448;-89
2022/04/17 13:15:15;;;;;;;2.60;1.20;;;15.70;46.70;;;;;;5071288;28;20451;-89
2022/04/17 13:17:52;;;;;;;3.50;1.70;;;15.80;47.70;;;;;;5057996;28;20430;-89
2022/04/17 13:20:21;;;;;;;4.03;1.60;;;15.70;48.20;;;;;;5070468;28;20415;-89
2022/04/17 13:22:49;;;;;;;4.13;1.80;;;15.50;47.70;;;;;;5073236;28;20474;-89
2022/04/17 13:25:17;;;;;;;4.10;1.53;;;15.50;48.00;;;;;;5065991;28;20449;-90
2022/04/17 13:27:48;;;;;;;4.07;1.30;;;15.60;48.00;;;;;;5058306;28;20510;-88
2022/04/17 13:30:33;;;;;;;3.10;1.63;;;15.80;46.10;;;;;;5057504;28;20431;-88
2022/04/17 13:33:25;;;;;;;3.17;1.30;;;16.00;44.40;;;;;;5054809;28;20510;-89
2022/04/17 13:36:17;;;;;;;3.10;1.50;;;16.00;43.70;;;;;;5054860;28;20461;-89
2022/04/17 13:38:47;;;;;;;4.47;1.50;;;16.00;43.60;;;;;;5051979;28;20523;-89
2022/04/17 13:41:17;;;;;;;5.10;1.70;;;16.10;44.20;;;;;;5055670;28;20791;-90
2022/04/17 13:46:33;;;;;;;3.83;1.60;;;16.00;44.90;;;;;;5053619;28;20443;-90
2022/04/17 13:49:01;;;;;;;3.13;1.57;;;16.00;44.10;;;;;;5054899;28;20420;-89
2022/04/17 13:51:31;;;;;;;4.10;2.10;;;16.10;44.50;;;;;;5055386;28;20991;-89
2022/04/17 13:54:05;;;;;;;3.90;1.20;;;16.10;44.80;;;;;;5056227;28;20524;-89
2022/04/17 13:56:41;;;;;;;4.97;1.70;;;16.20;44.20;;;;;;5065339;28;20434;-89
2022/04/17 13:59:17;;;;;;;3.37;1.67;;;16.10;44.10;;;;;;5062494;28;20442;-89
2022/04/17 14:01:50;;;;;;;3.63;1.50;;;16.30;43.60;;;;;;5065550;28;20480;-90
2022/04/17 14:04:29;;;;;;;4.80;1.70;;;16.40;43.30;;;;;;5055461;28;20499;-89
2022/04/17 14:07:10;;;;;;;3.70;1.70;;;16.30;42.70;;;;;;5056179;28;20427;-89
2022/04/17 14:15:10;;;;;;;2.90;1.30;;;16.30;41.70;;;;;;5030937;28;20535;-89
2022/04/17 14:17:43;;;;;;;3.97;1.83;;;16.20;40.50;;;;;;5044223;28;20392;-90
2022/04/17 14:20:38;;;;;;;2.50;1.10;;;16.40;40.80;;;;;;5042578;28;20456;-89
2022/04/17 14:23:06;;;;;;;4.10;2.03;;;16.20;40.70;;;;;;5038253;28;20478;-89
2022/04/17 14:25:38;;;;;;;3.57;1.73;;;16.40;41.40;;;;;;5053218;28;20453;-90
2022/04/17 14:28:20;;;;;;;3.10;1.60;;;16.40;41.20;;;;;;5038701;28;20528;-90
2022/04/17 14:30:47;;;;;;;2.97;1.50;;;16.50;41.30;;;;;;5034784;28;20801;-88
2022/04/17 14:33:14;;;;;;;4.10;1.50;;;16.70;40.90;;;;;;5034607;28;20478;-89
2022/04/17 14:35:57;;;;;;;3.03;1.43;;;16.70;38.60;;;;;;5039584;28;20584;-90
2022/04/17 14:38:33;;;;;;;3.50;1.70;;;16.60;38.40;;;;;;5040400;28;20520;-90
2022/04/17 14:41:02;;;;;;;3.60;1.50;;;16.80;38.10;;;;;;5047855;28;20491;-89
2022/04/17 14:43:29;;;;;;;3.70;1.73;;;16.80;41.40;;;;;;5040166;28;20478;-89
2022/04/17 14:45:56;;;;;;;3.23;1.50;;;16.70;43.40;;;;;;5034889;28;20465;-89
2022/04/17 14:48:23;;;;;;;4.53;2.10;;;16.90;43.00;;;;;;5036611;28;20494;-90
2022/04/17 14:50:54;;;;;;;5.10;1.73;;;17.10;42.00;;;;;;5036616;28;20919;-89
2022/04/17 14:53:23;;;;;;;4.00;1.80;;;17.10;40.60;;;;;;5045104;28;20812;-89
2022/04/17 14:55:54;;;;;;;5.57;2.00;;;17.10;40.80;;;;;;5042186;28;20487;-90
2022/04/17 14:58:23;;;;;;;3.67;1.90;;;17.30;41.10;;;;;;5039014;28;20448;-90
2022/04/17 15:00:56;;;;;;;3.30;1.70;;;17.50;40.90;;;;;;5039494;28;20465;-89
2022/04/17 15:03:26;;;;;;;8.43;3.20;;;17.30;38.70;;;;;;5039496;28;20484;-90
2022/04/17 15:05:55;;;;;;;3.40;1.50;;;17.20;37.10;;;;;;5041204;28;20441;-90
2022/04/17 15:08:24;;;;;;;2.87;1.43;;;17.40;39.70;;;;;;5039982;28;20450;-89
2022/04/17 15:10:54;;;;;;;3.27;1.80;;;17.50;40.00;;;;;;5039829;28;20449;-90
2022/04/17 15:13:27;;;;;;;3.10;1.43;;;17.60;40.90;;;;;;5047081;28;20459;-89
2022/04/17 15:15:55;;;;;;;3.90;1.77;;;17.20;42.10;;;;;;5059810;28;20473;-90
2022/04/17 15:18:22;;;;;;;5.70;1.57;;;17.50;42.30;;;;;;5060702;28;20472;-90
2022/04/17 15:20:51;;;;;;;3.67;1.60;;;17.40;42.50;;;;;;5059666;28;20832;-90
2022/04/17 15:23:20;;;;;;;3.33;1.60;;;17.90;42.20;;;;;;5058997;28;20463;-90
2022/04/17 15:25:50;;;;;;;4.10;2.27;;;18.00;42.40;;;;;;5062248;28;20423;-90
2022/04/17 15:28:24;;;;;;;4.47;2.20;;;18.30;42.40;;;;;;5062502;28;20460;-91
2022/04/17 15:30:51;;;;;;;4.23;1.93;;;18.70;41.30;;;;;;5062064;28;20449;-90
2022/04/17 15:33:26;;;;;;;3.30;1.67;;;18.50;42.20;;;;;;5062732;28;20439;-90
2022/04/17 15:36:18;;;;;;;3.20;1.60;;;18.30;42.10;;;;;;5068555;28;20791;-90
2022/04/17 15:38:52;;;;;;;3.80;1.70;;;18.50;42.10;;;;;;5065007;28;20528;-89
2022/04/17 15:41:34;;;;;;;3.13;1.63;;;17.90;41.10;;;;;;5074052;28;20483;-89
2022/04/17 15:49:51;;;;;;;3.80;1.67;;;18.00;40.40;;;;;;5066075;28;20386;-91
2022/04/17 15:52:21;;;;;;;3.43;1.53;;;18.30;40.40;;;;;;5065616;28;20435;-90
2022/04/17 15:54:51;;;;;;;2.93;1.50;;;17.80;40.40;;;;;;5076697;28;20506;-90
2022/04/17 15:57:23;;;;;;;4.97;1.60;;;17.90;40.80;;;;;;5078067;28;20431;-90
2022/04/17 15:59:59;;;;;;;3.17;1.83;;;18.10;40.20;;;;;;5078206;28;20490;-90
2022/04/17 16:02:26;;;;;;;3.33;1.50;;;17.70;40.10;;;;;;5077725;28;20514;-90
2022/04/17 16:04:56;;;;;;;4.93;2.67;;;17.30;40.40;;;;;;5064788;28;20954;-89
2022/04/17 16:07:23;;;;;;;3.50;1.80;;;16.90;40.60;;;;;;5062637;28;20467;-90
2022/04/17 16:09:52;;;;;;;3.53;1.70;;;16.70;40.50;;;;;;5064858;28;20427;-91
2022/04/17 16:12:19;;;;;;;3.30;1.60;;;16.80;39.90;;;;;;5069719;28;20492;-90
2022/04/17 16:14:46;;;;;;;2.90;1.50;;;16.60;39.60;;;;;;5061961;28;20552;-91
2022/04/17 16:17:16;;;;;;;3.20;1.40;;;16.60;40.00;;;;;;5058143;28;20829;-91
2022/04/17 16:22:52;;;;;;;3.40;1.57;;;16.40;39.70;;;;;;4936326;29;20481;-91
2022/04/17 16:25:24;;;;;;;3.40;1.60;;;16.30;40.00;;;;;;5047752;28;20424;-91
2022/04/17 16:27:59;;;;;;;3.10;1.43;;;16.10;40.80;;;;;;5060499;28;20498;-91
2022/04/17 16:30:30;;;;;;;3.03;1.60;;;16.10;41.40;;;;;;5060303;28;20515;-91
2022/04/17 16:33:11;;;;;;;3.90;1.50;;;16.10;41.60;;;;;;5061710;28;20456;-91
2022/04/17 16:36:09;;;;;;;5.43;1.83;;;16.10;41.20;;;;;;5062955;28;20511;-91
2022/04/17 16:40:03;;;;;;;;;;;;;;;;;;;;;
2022/04/17 16:42:54;;;;;;;4.83;1.80;;;16.10;41.50;;;;;;4893504;29;20544;-90
2022/04/17 16:45:52;;;;;;;3.20;1.30;;;16.10;42.20;;;;;;4979481;28;20457;-90
2022/04/17 16:48:23;;;;;;;3.93;1.70;;;16.00;42.80;;;;;;5070219;28;20559;-89
2022/04/17 16:50:51;;;;;;;3.63;1.70;;;15.90;42.40;;;;;;5062691;28;20437;-91
2022/04/17 16:53:23;;;;;;;5.40;1.70;;;15.80;42.80;;;;;;5068267;28;20581;-90
2022/04/17 16:55:51;;;;;;;3.83;1.30;;;15.70;43.00;;;;;;5061936;28;20483;-89
2022/04/17 17:01:32;;;;;;;4.10;2.03;;;15.70;43.40;;;;;;5072922;28;20394;-90
2022/04/17 17:04:03;;;;;;;6.03;2.13;;;15.80;44.10;;;;;;5069252;28;20546;-90
2022/04/17 17:09:48;;;;;;;3.47;1.70;;;15.50;45.20;;;;;;5060927;28;20423;-91
2022/04/17 17:15:32;;;;;;;3.87;2.17;;;15.50;45.40;;;;;;5171907;22;20525;-89
2022/04/17 17:29:12;;;;;;;5.57;1.97;;;15.20;45.90;;;;;;1484157;22;20699;-90
2022/04/17 17:31:42;;;;;;;3.83;1.57;;;15.30;46.30;;;;;;5074202;28;20415;-89
2022/04/17 17:34:11;;;;;;;3.90;2.17;;;15.30;46.80;;;;;;5070108;28;20459;-91
2022/04/17 17:36:53;;;;;;;4.50;2.13;;;15.20;47.30;;;;;;5065319;28;20477;-90
2022/04/17 17:39:28;;;;;;;3.60;2.30;;;15.10;47.40;;;;;;5066802;28;20487;-90
2022/04/17 17:41:58;;;;;;;4.07;2.10;;;15.00;47.10;;;;;;5068872;28;20444;-91
2022/04/17 17:47:45;;;;;;;5.27;1.93;;;15.00;47.70;;;;;;5069968;28;20424;-91
2022/04/17 17:50:32;;;;;;;3.43;1.80;;;14.90;47.70;;;;;;5065360;28;20455;-91
2022/04/17 17:53:37;;;;;;;5.03;2.23;;;14.90;47.80;;;;;;5069878;28;20472;-91
2022/04/17 17:56:34;;;;;;;4.30;2.00;;;14.90;47.80;;;;;;5075615;28;20475;-89
2022/04/17 17:59:19;;;;;;;6.33;2.93;;;14.90;47.80;;;;;;5066049;28;20456;-89
2022/04/17 18:02:14;;;;;;;3.50;1.93;;;14.90;48.30;;;;;;5066710;28;20453;-91
2022/04/17 18:04:56;;;;;;;4.13;1.67;;;14.70;48.10;;;;;;5052534;28;20477;-91
2022/04/17 18:16:37;;;;;;;4.03;2.43;;;14.60;48.00;;;;;;5165017;22;20773;-89
2022/04/17 18:19:17;;;;;;;3.97;2.40;;;14.40;48.50;;;;;;5087839;28;20800;-89
2022/04/17 18:21:44;;;;;;;3.20;1.87;;;14.40;48.60;;;;;;5088661;28;20458;-90
2022/04/17 18:24:17;;;;;;;4.17;2.33;;;14.20;48.80;;;;;;5080433;28;20486;-89
2022/04/17 18:26:55;;;;;;;4.63;2.50;;;14.30;49.20;;;;;;5082650;28;20912;-90
2022/04/17 18:29:24;;;;;;;4.53;1.83;;;14.20;49.30;;;;;;5089903;28;20426;-90
2022/04/17 18:31:54;;;;;;;4.77;2.60;;;14.20;49.30;;;;;;5088708;28;20838;-90
2022/04/17 18:34:30;;;;;;;5.50;2.30;;;14.10;49.70;;;;;;5082142;28;20469;-90
2022/04/17 18:36:57;;;;;;;4.50;2.47;;;14.00;50.00;;;;;;5095810;28;20468;-90
2022/04/17 18:39:30;;;;;;;4.27;1.83;;;13.90;50.00;;;;;;5099831;28;20443;-90
2022/04/17 18:50:00;;;;;;;4.80;2.10;;;13.80;50.80;;;;;;5115217;22;20475;-89
2022/04/17 18:58:15;;;;;;;4.57;2.57;;;13.70;51.30;;;;;;5066408;28;20465;-90
2022/04/17 19:00:43;;;;;;;7.13;3.60;;;13.60;51.10;;;;;;5078414;28;20467;-90
2022/04/17 19:03:10;;;;;;;5.17;2.60;;;13.70;51.60;;;;;;5081642;28;20454;-91
2022/04/17 19:05:42;;;;;;;4.33;2.60;;;13.70;51.30;;;;;;5083501;28;20523;-89
2022/04/17 19:08:09;;;;;;;5.30;2.37;;;13.60;51.30;;;;;;5081609;28;20438;-89
2022/04/17 19:10:43;;;;;;;5.40;2.30;;;13.60;51.50;;;;;;5086832;28;20451;-89
2022/04/17 19:15:58;;;;;;;3.67;1.93;;;13.70;51.40;;;;;;5090902;28;20433;-88
2022/04/17 19:18:32;;;;;;;4.00;2.20;;;13.60;51.50;;;;;;5088803;28;20447;-89
2022/04/17 19:21:00;;;;;;;4.27;2.80;;;13.60;51.70;;;;;;5089319;28;20447;-87
2022/04/17 19:23:28;;;;;;;8.30;3.77;;;13.60;52.50;;;;;;5086748;28;20517;-86
2022/04/17 19:25:55;;;;;;;5.70;2.60;;;13.50;53.40;;;;;;5086169;28;20517;-87
2022/04/17 19:28:22;;;;;;;4.53;2.63;;;13.40;53.60;;;;;;5089394;28;20427;-86
2022/04/17 19:36:16;;;;;;;4.60;2.50;;;13.20;53.50;;;;;;5098597;28;20482;-86
2022/04/17 19:38:43;;;;;;;4.10;1.97;;;13.20;53.30;;;;;;5096443;28;20869;-86
2022/04/17 19:41:15;;;;;;;4.30;2.50;;;13.40;52.90;;;;;;5099063;28;20478;-86
2022/04/17 19:43:43;;;;;;;4.57;2.57;;;13.30;52.90;;;;;;5093195;28;20470;-85
2022/04/17 19:46:12;;;;;;;5.67;3.40;;;13.00;53.30;;;;;;5086664;28;20554;-87
2022/04/17 19:48:39;;;;;;;4.70;2.40;;;13.00;54.70;;;;;;5085633;28;20456;-87
2022/04/17 19:51:09;;;;;;;5.67;2.13;;;13.00;54.70;;;;;;5085691;28;20439;-86
2022/04/17 19:53:38;;;;;;;3.70;2.10;;;12.90;54.40;;;;;;5085698;28;20868;-86
2022/04/17 19:56:06;;;;;;;4.67;2.37;;;12.90;54.40;;;;;;5085427;28;20792;-87
2022/04/17 19:58:33;;;;;;;4.77;2.10;;;12.90;54.40;;;;;;5086032;28;20410;-87
2022/04/17 20:01:05;;;;;;;4.53;2.50;;;13.00;53.90;;;;;;5085381;28;20889;-87
2022/04/17 20:03:34;;;;;;;4.97;2.30;;;12.90;54.10;;;;;;5085498;28;20480;-87
2022/04/17 20:06:02;;;;;;;5.33;2.37;;;12.90;54.70;;;;;;5086140;28;20447;-88
2022/04/17 20:08:37;;;;;;;6.00;3.03;;;12.90;55.20;;;;;;5095351;28;20444;-87
2022/04/17 20:11:08;;;;;;;4.43;2.50;;;12.90;55.60;;;;;;5094629;28;20848;-88
2022/04/17 20:13:44;;;;;;;3.90;2.57;;;12.80;55.90;;;;;;5091925;28;20538;-87
2022/04/17 20:16:12;;;;;;;4.30;2.33;;;12.70;56.20;;;;;;5089360;28;20537;-87
2022/04/17 20:18:39;;;;;;;4.10;2.33;;;12.60;56.10;;;;;;5086899;28;20559;-87